sensor_id;sensor_type;location;lat;lon;timestamp;P1;durP1;ratioP1;P2;durP2;ratioP2
40588;SDS011;26297;49.450;6.640;2023-07-09T00:03:46;4.85;;;2.80;;
40588;SDS011;26297;49.450;6.640;2023-07-09T00:10:43;3.25;;;2.55;;
40588;SDS011;26297;49.450;6.640;2023-07-09T00:17:45;5.10;;;2.70;;
40588;SDS011;26297;49.450;6.640;2023-07-09T00:21:22;3.15;;;2.70;;
40588;SDS011;26297;49.450;6.640;2023-07-09T00:32:27;4.00;;;3.00;;
40588;SDS011;26297;49.450;6.640;2023-07-09T00:35:54;3.80;;;2.70;;
40588;SDS011;26297;49.450;6.640;2023-07-09T00:53:58;5.57;;;2.90;;
40588;SDS011;26297;49.450;6.640;2023-07-09T01:01:00;3.38;;;2.58;;
40588;SDS011;26297;49.450;6.640;2023-07-09T01:04:11;4.03;;;3.00;;
40588;SDS011;26297;49.450;6.640;2023-07-09T01:07:32;6.55;;;2.97;;
40588;SDS011;26297;49.450;6.640;2023-07-09T01:10:51;6.47;;;3.10;;
40588;SDS011;26297;49.450;6.640;2023-07-09T01:13:58;6.43;;;2.72;;
40588;SDS011;26297;49.450;6.640;2023-07-09T01:17:12;4.22;;;3.30;;
40588;SDS011;26297;49.450;6.640;2023-07-09T01:20:20;4.35;;;3.58;;
40588;SDS011;26297;49.450;6.640;2023-07-09T01:24:15;4.93;;;3.38;;
40588;SDS011;26297;49.450;6.640;2023-07-09T01:28:06;7.10;;;3.08;;
40588;SDS011;26297;49.450;6.640;2023-07-09T01:31:14;4.47;;;2.63;;
40588;SDS011;26297;49.450;6.640;2023-07-09T01:34:28;4.53;;;3.05;;
40588;SDS011;26297;49.450;6.640;2023-07-09T01:37:34;5.63;;;3.00;;
40588;SDS011;26297;49.450;6.640;2023-07-09T01:40:39;5.70;;;3.20;;
40588;SDS011;26297;49.450;6.640;2023-07-09T01:43:43;3.15;;;2.63;;
40588;SDS011;26297;49.450;6.640;2023-07-09T01:46:49;5.47;;;3.13;;
40588;SDS011;26297;49.450;6.640;2023-07-09T01:50:01;3.67;;;3.00;;
40588;SDS011;26297;49.450;6.640;2023-07-09T01:53:04;3.42;;;2.80;;
40588;SDS011;26297;49.450;6.640;2023-07-09T01:56:15;3.53;;;2.75;;
40588;SDS011;26297;49.450;6.640;2023-07-09T01:59:21;6.05;;;3.10;;
40588;SDS011;26297;49.450;6.640;2023-07-09T02:02:28;4.40;;;2.92;;
40588;SDS011;26297;49.450;6.640;2023-07-09T02:05:31;7.68;;;3.63;;
40588;SDS011;26297;49.450;6.640;2023-07-09T02:12:19;4.32;;;2.67;;
40588;SDS011;26297;49.450;6.640;2023-07-09T02:15:22;3.88;;;3.00;;
40588;SDS011;26297;49.450;6.640;2023-07-09T02:18:47;4.15;;;3.15;;
40588;SDS011;26297;49.450;6.640;2023-07-09T02:29:10;5.00;;;3.20;;
40588;SDS011;26297;49.450;6.640;2023-07-09T02:35:46;7.95;;;3.03;;
40588;SDS011;26297;49.450;6.640;2023-07-09T02:38:52;5.47;;;3.42;;
40588;SDS011;26297;49.450;6.640;2023-07-09T02:42:47;3.22;;;2.92;;
40588;SDS011;26297;49.450;6.640;2023-07-09T02:48:54;4.28;;;3.20;;
40588;SDS011;26297;49.450;6.640;2023-07-09T02:55:13;6.07;;;2.92;;
40588;SDS011;26297;49.450;6.640;2023-07-09T02:58:32;4.43;;;3.15;;
40588;SDS011;26297;49.450;6.640;2023-07-09T03:01:49;4.03;;;3.13;;
40588;SDS011;26297;49.450;6.640;2023-07-09T03:04:58;3.65;;;2.88;;
40588;SDS011;26297;49.450;6.640;2023-07-09T03:08:02;6.50;;;3.15;;
40588;SDS011;26297;49.450;6.640;2023-07-09T03:11:11;5.78;;;3.25;;
40588;SDS011;26297;49.450;6.640;2023-07-09T03:14:23;3.92;;;3.53;;
40588;SDS011;26297;49.450;6.640;2023-07-09T03:17:29;5.40;;;3.10;;
40588;SDS011;26297;49.450;6.640;2023-07-09T03:20:33;5.22;;;3.47;;
40588;SDS011;26297;49.450;6.640;2023-07-09T03:23:44;4.00;;;2.90;;
40588;SDS011;26297;49.450;6.640;2023-07-09T03:27:07;3.92;;;3.08;;
40588;SDS011;26297;49.450;6.640;2023-07-09T03:30:16;5.57;;;2.80;;
40588;SDS011;26297;49.450;6.640;2023-07-09T03:33:33;4.75;;;3.33;;
40588;SDS011;26297;49.450;6.640;2023-07-09T03:37:05;3.33;;;2.85;;
40588;SDS011;26297;49.450;6.640;2023-07-09T03:40:54;5.57;;;3.38;;
40588;SDS011;26297;49.450;6.640;2023-07-09T03:44:01;3.80;;;3.10;;
40588;SDS011;26297;49.450;6.640;2023-07-09T03:55:31;5.88;;;2.90;;
40588;SDS011;26297;49.450;6.640;2023-07-09T03:59:00;4.43;;;2.88;;
40588;SDS011;26297;49.450;6.640;2023-07-09T04:02:08;5.63;;;3.28;;
40588;SDS011;26297;49.450;6.640;2023-07-09T04:05:24;5.28;;;3.45;;
40588;SDS011;26297;49.450;6.640;2023-07-09T04:08:30;4.50;;;3.00;;
40588;SDS011;26297;49.450;6.640;2023-07-09T04:11:47;4.20;;;3.20;;
40588;SDS011;26297;49.450;6.640;2023-07-09T04:15:07;4.47;;;3.30;;
40588;SDS011;26297;49.450;6.640;2023-07-09T04:18:12;5.80;;;3.22;;
40588;SDS011;26297;49.450;6.640;2023-07-09T04:21:36;5.43;;;3.30;;
40588;SDS011;26297;49.450;6.640;2023-07-09T04:24:59;5.13;;;3.17;;
40588;SDS011;26297;49.450;6.640;2023-07-09T04:28:21;3.88;;;3.28;;
40588;SDS011;26297;49.450;6.640;2023-07-09T04:31:42;4.15;;;3.50;;
40588;SDS011;26297;49.450;6.640;2023-07-09T04:34:48;3.70;;;2.97;;
40588;SDS011;26297;49.450;6.640;2023-07-09T04:37:54;4.88;;;3.67;;
40588;SDS011;26297;49.450;6.640;2023-07-09T04:41:04;4.13;;;3.20;;
40588;SDS011;26297;49.450;6.640;2023-07-09T04:44:21;4.70;;;3.25;;
40588;SDS011;26297;49.450;6.640;2023-07-09T04:47:32;5.13;;;3.65;;
40588;SDS011;26297;49.450;6.640;2023-07-09T04:50:44;5.40;;;3.65;;
40588;SDS011;26297;49.450;6.640;2023-07-09T04:53:52;4.72;;;2.78;;
40588;SDS011;26297;49.450;6.640;2023-07-09T04:57:02;6.07;;;3.83;;
40588;SDS011;26297;49.450;6.640;2023-07-09T05:00:21;4.47;;;3.40;;
40588;SDS011;26297;49.450;6.640;2023-07-09T05:03:25;3.45;;;3.15;;
40588;SDS011;26297;49.450;6.640;2023-07-09T05:06:36;3.92;;;3.50;;
40588;SDS011;26297;49.450;6.640;2023-07-09T05:09:54;4.43;;;3.35;;
40588;SDS011;26297;49.450;6.640;2023-07-09T05:13:03;5.30;;;3.08;;
40588;SDS011;26297;49.450;6.640;2023-07-09T05:16:10;5.03;;;3.60;;
40588;SDS011;26297;49.450;6.640;2023-07-09T05:19:17;4.72;;;3.35;;
40588;SDS011;26297;49.450;6.640;2023-07-09T05:22:32;5.93;;;3.38;;
40588;SDS011;26297;49.450;6.640;2023-07-09T05:25:39;4.30;;;3.63;;
40588;SDS011;26297;49.450;6.640;2023-07-09T05:28:52;4.68;;;3.63;;
40588;SDS011;26297;49.450;6.640;2023-07-09T05:31:59;4.45;;;3.38;;
40588;SDS011;26297;49.450;6.640;2023-07-09T05:35:12;5.18;;;3.22;;
40588;SDS011;26297;49.450;6.640;2023-07-09T05:38:18;4.43;;;3.80;;
40588;SDS011;26297;49.450;6.640;2023-07-09T05:41:25;4.13;;;3.20;;
40588;SDS011;26297;49.450;6.640;2023-07-09T05:44:28;4.85;;;3.30;;
40588;SDS011;26297;49.450;6.640;2023-07-09T05:47:37;4.32;;;3.50;;
40588;SDS011;26297;49.450;6.640;2023-07-09T05:50:42;5.95;;;3.58;;
40588;SDS011;26297;49.450;6.640;2023-07-09T05:53:48;5.25;;;3.47;;
40588;SDS011;26297;49.450;6.640;2023-07-09T05:56:54;6.50;;;3.50;;
40588;SDS011;26297;49.450;6.640;2023-07-09T06:00:04;4.65;;;3.13;;
40588;SDS011;26297;49.450;6.640;2023-07-09T06:03:11;3.63;;;3.30;;
40588;SDS011;26297;49.450;6.640;2023-07-09T06:06:17;4.82;;;3.75;;
40588;SDS011;26297;49.450;6.640;2023-07-09T06:09:20;5.18;;;3.47;;
40588;SDS011;26297;49.450;6.640;2023-07-09T06:12:24;4.50;;;3.33;;
40588;SDS011;26297;49.450;6.640;2023-07-09T06:15:33;3.87;;;3.40;;
40588;SDS011;26297;49.450;6.640;2023-07-09T06:18:39;6.22;;;3.55;;
40588;SDS011;26297;49.450;6.640;2023-07-09T06:21:43;4.85;;;3.70;;
40588;SDS011;26297;49.450;6.640;2023-07-09T06:24:51;5.82;;;4.00;;
40588;SDS011;26297;49.450;6.640;2023-07-09T06:28:00;4.85;;;3.58;;
40588;SDS011;26297;49.450;6.640;2023-07-09T06:31:04;4.78;;;3.92;;
40588;SDS011;26297;49.450;6.640;2023-07-09T06:34:24;5.00;;;3.63;;
40588;SDS011;26297;49.450;6.640;2023-07-09T06:37:30;5.22;;;4.30;;
40588;SDS011;26297;49.450;6.640;2023-07-09T06:40:29;5.88;;;3.67;;
40588;SDS011;26297;49.450;6.640;2023-07-09T06:43:42;5.40;;;3.72;;
40588;SDS011;26297;49.450;6.640;2023-07-09T06:47:08;5.97;;;3.85;;
40588;SDS011;26297;49.450;6.640;2023-07-09T06:50:20;5.30;;;3.58;;
40588;SDS011;26297;49.450;6.640;2023-07-09T06:53:28;5.65;;;4.07;;
40588;SDS011;26297;49.450;6.640;2023-07-09T06:56:52;5.00;;;3.50;;
40588;SDS011;26297;49.450;6.640;2023-07-09T07:00:08;4.18;;;3.30;;
40588;SDS011;26297;49.450;6.640;2023-07-09T07:03:17;5.47;;;3.17;;
40588;SDS011;26297;49.450;6.640;2023-07-09T07:06:29;5.10;;;3.60;;
40588;SDS011;26297;49.450;6.640;2023-07-09T07:09:39;6.50;;;3.60;;
40588;SDS011;26297;49.450;6.640;2023-07-09T07:12:46;5.38;;;3.97;;
40588;SDS011;26297;49.450;6.640;2023-07-09T07:16:00;5.03;;;3.92;;
40588;SDS011;26297;49.450;6.640;2023-07-09T07:19:12;6.47;;;4.07;;
40588;SDS011;26297;49.450;6.640;2023-07-09T07:22:22;3.35;;;2.97;;
40588;SDS011;26297;49.450;6.640;2023-07-09T07:25:31;4.07;;;3.03;;
40588;SDS011;26297;49.450;6.640;2023-07-09T07:28:40;6.68;;;3.63;;
40588;SDS011;26297;49.450;6.640;2023-07-09T07:31:46;3.28;;;2.97;;
40588;SDS011;26297;49.450;6.640;2023-07-09T07:35:32;4.50;;;3.38;;
40588;SDS011;26297;49.450;6.640;2023-07-09T09:34:22;5.43;;;4.00;;
40588;SDS011;26297;49.450;6.640;2023-07-09T09:42:15;5.25;;;4.38;;
40588;SDS011;26297;49.450;6.640;2023-07-09T09:53:08;6.10;;;4.43;;
40588;SDS011;26297;49.450;6.640;2023-07-09T10:00:54;5.68;;;4.10;;
40588;SDS011;26297;49.450;6.640;2023-07-09T10:28:01;8.43;;;4.35;;
40588;SDS011;26297;49.450;6.640;2023-07-09T10:36:02;7.30;;;4.35;;
40588;SDS011;26297;49.450;6.640;2023-07-09T11:09:46;6.68;;;5.20;;
40588;SDS011;26297;49.450;6.640;2023-07-09T11:13:30;7.90;;;4.80;;
40588;SDS011;26297;49.450;6.640;2023-07-09T11:27:29;6.25;;;3.22;;
40588;SDS011;26297;49.450;6.640;2023-07-09T11:57:46;7.38;;;4.68;;
40588;SDS011;26297;49.450;6.640;2023-07-09T13:23:59;3.35;;;2.92;;
40588;SDS011;26297;49.450;6.640;2023-07-09T14:14:07;6.53;;;2.60;;
40588;SDS011;26297;49.450;6.640;2023-07-09T15:23:46;3.22;;;2.47;;
40588;SDS011;26297;49.450;6.640;2023-07-09T15:27:19;6.15;;;2.72;;
40588;SDS011;26297;49.450;6.640;2023-07-09T17:27:51;3.35;;;2.40;;
40588;SDS011;26297;49.450;6.640;2023-07-09T17:31:05;3.85;;;2.47;;
40588;SDS011;26297;49.450;6.640;2023-07-09T17:38:34;5.60;;;3.17;;
40588;SDS011;26297;49.450;6.640;2023-07-09T17:41:43;2.70;;;2.28;;
40588;SDS011;26297;49.450;6.640;2023-07-09T17:44:56;3.13;;;2.65;;
40588;SDS011;26297;49.450;6.640;2023-07-09T17:59:58;2.90;;;2.33;;
40588;SDS011;26297;49.450;6.640;2023-07-09T18:03:26;5.15;;;2.92;;
40588;SDS011;26297;49.450;6.640;2023-07-09T18:06:50;4.97;;;2.60;;
40588;SDS011;26297;49.450;6.640;2023-07-09T18:10:07;3.13;;;2.50;;
40588;SDS011;26297;49.450;6.640;2023-07-09T18:13:19;3.13;;;2.53;;
40588;SDS011;26297;49.450;6.640;2023-07-09T18:16:57;5.28;;;2.70;;
40588;SDS011;26297;49.450;6.640;2023-07-09T18:20:14;2.65;;;2.20;;
40588;SDS011;26297;49.450;6.640;2023-07-09T18:23:31;3.50;;;2.20;;
40588;SDS011;26297;49.450;6.640;2023-07-09T18:26:48;4.63;;;2.08;;
40588;SDS011;26297;49.450;6.640;2023-07-09T18:29:58;3.33;;;2.40;;
40588;SDS011;26297;49.450;6.640;2023-07-09T18:33:11;3.03;;;2.20;;
40588;SDS011;26297;49.450;6.640;2023-07-09T18:36:20;3.55;;;2.08;;
40588;SDS011;26297;49.450;6.640;2023-07-09T18:39:27;3.45;;;2.30;;
40588;SDS011;26297;49.450;6.640;2023-07-09T18:42:31;2.60;;;2.40;;
40588;SDS011;26297;49.450;6.640;2023-07-09T18:45:37;2.78;;;2.47;;
40588;SDS011;26297;49.450;6.640;2023-07-09T18:49:09;2.28;;;2.03;;
40588;SDS011;26297;49.450;6.640;2023-07-09T18:52:40;3.22;;;2.42;;
40588;SDS011;26297;49.450;6.640;2023-07-09T18:55:45;4.88;;;2.45;;
40588;SDS011;26297;49.450;6.640;2023-07-09T18:58:58;2.97;;;2.58;;
40588;SDS011;26297;49.450;6.640;2023-07-09T19:02:02;2.40;;;2.20;;
40588;SDS011;26297;49.450;6.640;2023-07-09T19:05:18;2.70;;;2.20;;
40588;SDS011;26297;49.450;6.640;2023-07-09T19:08:24;4.30;;;2.55;;
40588;SDS011;26297;49.450;6.640;2023-07-09T19:11:28;2.47;;;2.13;;
40588;SDS011;26297;49.450;6.640;2023-07-09T19:14:35;5.03;;;2.30;;
40588;SDS011;26297;49.450;6.640;2023-07-09T19:17:38;3.58;;;2.15;;
40588;SDS011;26297;49.450;6.640;2023-07-09T19:20:51;2.92;;;2.63;;
40588;SDS011;26297;49.450;6.640;2023-07-09T19:24:17;3.53;;;2.10;;
40588;SDS011;26297;49.450;6.640;2023-07-09T19:27:21;4.95;;;2.90;;
40588;SDS011;26297;49.450;6.640;2023-07-09T19:30:32;3.35;;;2.20;;
40588;SDS011;26297;49.450;6.640;2023-07-09T19:33:38;3.47;;;2.33;;
40588;SDS011;26297;49.450;6.640;2023-07-09T19:36:44;5.35;;;2.30;;
40588;SDS011;26297;49.450;6.640;2023-07-09T19:39:57;3.92;;;2.50;;
40588;SDS011;26297;49.450;6.640;2023-07-09T19:43:01;6.20;;;2.78;;
40588;SDS011;26297;49.450;6.640;2023-07-09T19:46:07;4.47;;;2.75;;
40588;SDS011;26297;49.450;6.640;2023-07-09T19:49:20;2.13;;;1.92;;
40588;SDS011;26297;49.450;6.640;2023-07-09T19:52:24;3.95;;;2.60;;
40588;SDS011;26297;49.450;6.640;2023-07-09T19:55:30;2.38;;;2.17;;
40588;SDS011;26297;49.450;6.640;2023-07-09T19:58:36;5.07;;;2.90;;
40588;SDS011;26297;49.450;6.640;2023-07-09T20:04:31;3.10;;;2.58;;
40588;SDS011;26297;49.450;6.640;2023-07-09T20:08:07;4.53;;;3.20;;
40588;SDS011;26297;49.450;6.640;2023-07-09T20:12:04;4.53;;;2.53;;
40588;SDS011;26297;49.450;6.640;2023-07-09T20:15:50;2.90;;;2.28;;
40588;SDS011;26297;49.450;6.640;2023-07-09T20:21:57;4.10;;;2.50;;
40588;SDS011;26297;49.450;6.640;2023-07-09T20:25:38;2.47;;;2.28;;
40588;SDS011;26297;49.450;6.640;2023-07-09T20:29:16;3.50;;;2.78;;
40588;SDS011;26297;49.450;6.640;2023-07-09T20:32:38;5.35;;;3.08;;
40588;SDS011;26297;49.450;6.640;2023-07-09T20:40:05;3.03;;;2.50;;
40588;SDS011;26297;49.450;6.640;2023-07-09T20:43:28;2.83;;;2.13;;
40588;SDS011;26297;49.450;6.640;2023-07-09T20:47:21;4.55;;;2.70;;
40588;SDS011;26297;49.450;6.640;2023-07-09T20:50:40;2.85;;;2.53;;
40588;SDS011;26297;49.450;6.640;2023-07-09T20:53:44;3.42;;;2.80;;
40588;SDS011;26297;49.450;6.640;2023-07-09T20:56:53;2.50;;;2.28;;
40588;SDS011;26297;49.450;6.640;2023-07-09T21:03:11;3.30;;;2.25;;
40588;SDS011;26297;49.450;6.640;2023-07-09T21:06:38;4.35;;;2.67;;
40588;SDS011;26297;49.450;6.640;2023-07-09T21:13:40;2.70;;;2.40;;
40588;SDS011;26297;49.450;6.640;2023-07-09T21:17:08;4.13;;;2.90;;
40588;SDS011;26297;49.450;6.640;2023-07-09T22:41:58;2.92;;;2.58;;
40588;SDS011;26297;49.450;6.640;2023-07-09T22:49:32;3.63;;;2.65;;
40588;SDS011;26297;49.450;6.640;2023-07-09T22:56:52;4.97;;;2.80;;
